Time;durP1;ratioP1;P1;durP2;ratioP2;P2;SDS_P1;SDS_P2;PMS_P1;PMS_P2;Temp;Humidity;BMP_temperature;BMP_pressure;BME280_temperature;BME280_humidity;BME280_pressure;Samples;Min_cycle;Max_cycle;Signal;HPM_P1;HPM_P2
2023/11/06 00:01:17;;;;;;;0.70;0.60;;;8.00;99.90;;;;;;5089667;28;20744;-74
2023/11/06 00:03:43;;;;;;;0.60;0.57;;;8.10;99.90;;;;;;5089669;28;21193;-74
2023/11/06 00:06:12;;;;;;;0.60;0.60;;;8.20;99.90;;;;;;5089003;28;21215;-74
2023/11/06 00:08:39;;;;;;;0.90;0.80;;;8.20;99.90;;;;;;5088858;28;21064;-74
2023/11/06 00:11:05;;;;;;;0.70;0.70;;;8.10;99.90;;;;;;5090011;28;21016;-75
2023/11/06 00:13:32;;;;;;;1.10;0.57;;;8.10;99.90;;;;;;5089032;28;20654;-74
2023/11/06 00:15:59;;;;;;;2.53;0.60;;;8.00;99.90;;;;;;5089442;28;20636;-74
2023/11/06 00:18:26;;;;;;;0.60;0.50;;;8.00;99.90;;;;;;5088661;28;20749;-74
2023/11/06 00:20:52;;;;;;;1.20;0.77;;;8.00;99.90;;;;;;5088646;28;20732;-74
2023/11/06 00:23:21;;;;;;;0.40;0.40;;;8.10;99.90;;;;;;5089743;28;20690;-73
2023/11/06 00:25:47;;;;;;;0.57;0.50;;;8.00;99.90;;;;;;5088916;28;20632;-72
2023/11/06 00:28:14;;;;;;;1.07;0.97;;;8.10;99.90;;;;;;5088430;28;20639;-74
2023/11/06 00:30:41;;;;;;;0.80;0.50;;;8.00;99.90;;;;;;5089020;28;20966;-74
2023/11/06 00:33:08;;;;;;;0.90;0.63;;;8.00;99.90;;;;;;5080616;28;21026;-74
2023/11/06 00:35:34;;;;;;;1.73;0.70;;;8.00;99.90;;;;;;5088534;28;20780;-74
2023/11/06 00:38:01;;;;;;;1.07;0.60;;;7.90;99.90;;;;;;5088497;28;20605;-74
2023/11/06 00:40:29;;;;;;;0.90;0.90;;;7.80;99.90;;;;;;5089167;28;20637;-74
2023/11/06 00:42:57;;;;;;;2.53;0.73;;;7.90;99.90;;;;;;5088734;28;20632;-74
2023/11/06 00:45:24;;;;;;;0.40;0.40;;;7.80;99.90;;;;;;5089260;28;20620;-74
2023/11/06 00:47:51;;;;;;;0.70;0.70;;;8.00;99.90;;;;;;5087666;28;20621;-76
2023/11/06 00:50:18;;;;;;;2.20;0.60;;;8.00;99.90;;;;;;5088966;28;20627;-74
2023/11/06 00:52:45;;;;;;;0.83;0.83;;;7.90;99.90;;;;;;5088637;28;20660;-75
2023/11/06 00:55:11;;;;;;;1.60;0.67;;;7.80;99.90;;;;;;5088675;28;20624;-75
2023/11/06 00:57:39;;;;;;;1.27;0.90;;;7.90;99.90;;;;;;5088474;28;20724;-75
2023/11/06 01:00:10;;;;;;;0.80;0.80;;;7.90;99.90;;;;;;5088462;28;21020;-74
2023/11/06 01:02:37;;;;;;;0.60;0.60;;;7.90;99.90;;;;;;5079587;28;21216;-75
2023/11/06 01:05:04;;;;;;;1.00;0.90;;;7.80;99.90;;;;;;5088536;28;20640;-74
2023/11/06 01:07:31;;;;;;;5.40;0.70;;;7.80;99.90;;;;;;5087875;28;20625;-75
2023/11/06 01:09:58;;;;;;;1.43;0.97;;;7.90;99.90;;;;;;5088524;28;20617;-74
2023/11/06 01:12:25;;;;;;;0.93;0.70;;;7.80;99.90;;;;;;5088734;28;20663;-74
2023/11/06 01:14:53;;;;;;;1.13;0.70;;;7.80;99.90;;;;;;5087667;28;20635;-75
2023/11/06 01:17:20;;;;;;;1.67;1.03;;;7.90;99.90;;;;;;5087485;28;20635;-74
2023/11/06 01:19:46;;;;;;;1.23;0.70;;;7.90;99.90;;;;;;5088235;28;20648;-74
2023/11/06 01:22:13;;;;;;;0.53;0.33;;;7.80;99.90;;;;;;5088538;28;20981;-75
2023/11/06 01:24:40;;;;;;;0.70;0.70;;;7.80;99.90;;;;;;5087960;28;20983;-74
2023/11/06 01:27:06;;;;;;;0.80;0.80;;;7.70;99.90;;;;;;5087427;28;21228;-75
2023/11/06 01:29:33;;;;;;;0.57;0.57;;;7.80;99.90;;;;;;5087169;28;20633;-74
2023/11/06 01:32:01;;;;;;;0.50;0.50;;;7.80;99.90;;;;;;5087980;28;20230;-74
2023/11/06 01:34:28;;;;;;;0.47;0.47;;;7.70;99.90;;;;;;5088245;28;20632;-74
2023/11/06 01:36:55;;;;;;;1.53;0.90;;;7.70;99.90;;;;;;5087853;28;20628;-74
2023/11/06 01:39:22;;;;;;;0.93;0.93;;;7.80;99.90;;;;;;5086522;28;20613;-75
2023/11/06 01:41:49;;;;;;;0.57;0.57;;;7.80;99.90;;;;;;5087802;28;20633;-74
2023/11/06 01:44:16;;;;;;;1.70;0.87;;;7.80;99.90;;;;;;5086906;28;20617;-74
2023/11/06 01:46:43;;;;;;;1.95;0.65;;;7.80;99.90;;;;;;5087762;28;20643;-74
2023/11/06 01:49:12;;;;;;;0.98;0.70;;;7.70;99.90;;;;;;5087149;28;20241;-74
2023/11/06 01:51:40;;;;;;;0.70;0.57;;;7.80;99.90;;;;;;5087647;28;20344;-74
2023/11/06 01:54:07;;;;;;;2.40;1.70;;;7.80;99.90;;;;;;5087464;28;20623;-74
2023/11/06 01:56:37;;;;;;;1.33;0.87;;;7.70;99.90;;;;;;5086472;28;20633;-74
2023/11/06 01:59:05;;;;;;;3.70;0.70;;;7.70;99.90;;;;;;5086879;28;20653;-76
2023/11/06 02:01:36;;;;;;;0.67;0.67;;;7.70;99.90;;;;;;5087477;28;21225;-75
2023/11/06 02:04:03;;;;;;;0.70;0.70;;;7.70;99.90;;;;;;5086927;28;20617;-74
2023/11/06 02:06:33;;;;;;;0.63;0.63;;;7.70;99.90;;;;;;5086925;28;20629;-74
2023/11/06 02:09:00;;;;;;;0.50;0.50;;;7.70;99.90;;;;;;5085942;28;20690;-75
2023/11/06 02:11:29;;;;;;;0.70;0.70;;;7.70;99.90;;;;;;5087119;28;20649;-75
2023/11/06 02:13:57;;;;;;;0.40;0.38;;;7.70;99.90;;;;;;5086873;28;21003;-74
2023/11/06 02:16:25;;;;;;;0.45;0.45;;;7.70;99.90;;;;;;5087216;28;20203;-75
2023/11/06 02:18:52;;;;;;;0.63;0.50;;;7.60;99.90;;;;;;5078440;28;20560;-75
2023/11/06 02:21:20;;;;;;;1.60;0.80;;;7.70;99.90;;;;;;5087576;28;20284;-74
2023/11/06 02:23:49;;;;;;;0.90;0.50;;;7.80;99.90;;;;;;5085381;28;20659;-74
2023/11/06 02:26:18;;;;;;;1.53;0.50;;;7.80;99.90;;;;;;5087230;28;20699;-74
2023/11/06 02:28:51;;;;;;;0.87;0.60;;;7.70;99.90;;;;;;5086972;28;21132;-75
2023/11/06 02:31:19;;;;;;;1.10;0.70;;;7.70;99.90;;;;;;5086768;28;20621;-74
2023/11/06 02:33:47;;;;;;;1.05;0.45;;;7.70;99.90;;;;;;5086819;28;20632;-74
2023/11/06 02:36:15;;;;;;;2.40;0.70;;;7.70;99.90;;;;;;5086208;28;20740;-74
2023/11/06 02:38:44;;;;;;;0.90;0.90;;;7.70;99.90;;;;;;5086377;28;21281;-74
2023/11/06 02:41:13;;;;;;;0.70;0.40;;;7.70;99.90;;;;;;5085261;28;20635;-74
2023/11/06 02:43:40;;;;;;;0.80;0.77;;;7.70;99.90;;;;;;5086575;28;20388;-74
2023/11/06 02:46:08;;;;;;;0.40;0.30;;;7.70;99.90;;;;;;5086822;28;21226;-74
2023/11/06 02:48:37;;;;;;;9.70;1.53;;;7.80;99.90;;;;;;5086056;28;20932;-73
2023/11/06 02:51:07;;;;;;;1.55;0.70;;;7.80;99.90;;;;;;5086929;28;20702;-73
2023/11/06 02:53:34;;;;;;;0.53;0.30;;;7.70;99.90;;;;;;5086670;28;20299;-74
2023/11/06 02:56:01;;;;;;;1.27;1.23;;;7.70;99.90;;;;;;5086456;28;20728;-74
2023/11/06 02:58:29;;;;;;;0.40;0.40;;;7.80;99.90;;;;;;5086087;28;20678;-73
2023/11/06 03:00:55;;;;;;;0.30;0.30;;;7.70;99.90;;;;;;5086298;28;20609;-74
2023/11/06 03:03:22;;;;;;;0.40;0.40;;;7.70;99.90;;;;;;5086460;28;20725;-73
2023/11/06 03:05:48;;;;;;;0.40;0.30;;;7.70;99.90;;;;;;5086537;28;21021;-74
2023/11/06 03:08:15;;;;;;;2.58;0.98;;;7.70;99.90;;;;;;5085934;28;20199;-73
2023/11/06 03:10:42;;;;;;;4.30;0.50;;;7.70;99.90;;;;;;5077983;28;20195;-73
2023/11/06 03:13:09;;;;;;;0.50;0.30;;;7.60;99.90;;;;;;5086507;28;21493;-75
2023/11/06 03:15:37;;;;;;;1.07;0.60;;;7.70;99.90;;;;;;5086201;28;20617;-74
2023/11/06 03:18:07;;;;;;;0.95;0.75;;;7.70;99.90;;;;;;5085669;28;20721;-74
2023/11/06 03:20:34;;;;;;;0.67;0.67;;;7.60;99.90;;;;;;5086392;28;20206;-74
2023/11/06 03:23:02;;;;;;;0.50;0.50;;;7.70;99.90;;;;;;5086389;28;20621;-74
2023/11/06 03:25:31;;;;;;;0.80;0.50;;;7.70;99.90;;;;;;5085387;28;20259;-74
2023/11/06 03:27:58;;;;;;;0.47;0.43;;;7.70;99.90;;;;;;5085709;28;20657;-74
2023/11/06 03:30:26;;;;;;;0.50;0.47;;;7.70;99.90;;;;;;5086043;28;20625;-74
2023/11/06 03:32:55;;;;;;;0.50;0.30;;;7.70;99.90;;;;;;5086017;28;20227;-74
2023/11/06 03:35:23;;;;;;;3.40;0.87;;;7.70;99.90;;;;;;5086421;28;20649;-74
2023/11/06 03:37:50;;;;;;;0.67;0.37;;;7.70;99.90;;;;;;5085555;28;20720;-74
2023/11/06 03:40:18;;;;;;;0.77;0.70;;;7.70;99.90;;;;;;5086243;28;20629;-74
2023/11/06 03:42:45;;;;;;;0.80;0.50;;;7.80;99.90;;;;;;5085785;28;20706;-74
2023/11/06 03:45:14;;;;;;;2.87;0.73;;;7.80;99.90;;;;;;5085860;28;20617;-75
2023/11/06 03:47:42;;;;;;;0.83;0.60;;;7.80;99.90;;;;;;5085626;28;21076;-74
2023/11/06 03:50:11;;;;;;;0.47;0.40;;;7.80;99.90;;;;;;5086075;28;20657;-74
2023/11/06 03:52:39;;;;;;;1.10;0.63;;;7.80;99.90;;;;;;5086148;28;20296;-74
2023/11/06 03:55:07;;;;;;;0.93;0.57;;;7.80;99.90;;;;;;5085832;28;20757;-74
2023/11/06 03:57:34;;;;;;;6.73;0.90;;;7.80;99.90;;;;;;5085405;28;20647;-73
2023/11/06 04:00:01;;;;;;;0.30;0.30;;;7.80;99.90;;;;;;5085998;28;20647;-73
2023/11/06 04:02:27;;;;;;;0.40;0.30;;;7.80;99.90;;;;;;5088714;28;20205;-73
2023/11/06 04:04:54;;;;;;;0.70;0.57;;;7.80;99.90;;;;;;5088377;28;20617;-74
2023/11/06 04:07:22;;;;;;;0.93;0.70;;;7.90;99.90;;;;;;5088456;28;20796;-74
2023/11/06 04:09:49;;;;;;;1.75;0.93;;;7.90;99.90;;;;;;5088404;28;20626;-74
2023/11/06 04:12:16;;;;;;;1.73;0.70;;;8.00;99.90;;;;;;5088371;28;20339;-74
2023/11/06 04:14:43;;;;;;;0.50;0.50;;;7.90;99.90;;;;;;5088425;28;20621;-74
2023/11/06 04:17:09;;;;;;;0.57;0.27;;;7.90;99.90;;;;;;5088098;28;20621;-74
2023/11/06 04:19:36;;;;;;;0.50;0.30;;;7.90;99.90;;;;;;5089003;28;20973;-73
2023/11/06 04:22:04;;;;;;;1.20;1.00;;;7.80;99.90;;;;;;5089407;28;20736;-74
2023/11/06 04:24:32;;;;;;;0.60;0.50;;;7.80;99.90;;;;;;5089184;28;20714;-74
2023/11/06 04:26:59;;;;;;;0.70;0.70;;;7.80;99.90;;;;;;5089386;28;20724;-73
2023/11/06 04:29:26;;;;;;;0.63;0.30;;;7.80;99.90;;;;;;5088695;28;20736;-73
2023/11/06 04:31:53;;;;;;;0.83;0.63;;;7.90;99.90;;;;;;5088959;28;20625;-73
2023/11/06 04:34:19;;;;;;;2.87;1.17;;;7.90;99.90;;;;;;5088887;28;21263;-74
2023/11/06 04:36:47;;;;;;;0.43;0.40;;;7.90;99.90;;;;;;5089350;28;20621;-74
2023/11/06 04:39:14;;;;;;;0.87;0.60;;;7.90;99.90;;;;;;5088257;28;20636;-74
2023/11/06 04:41:42;;;;;;;0.43;0.43;;;7.80;99.90;;;;;;5089176;28;20720;-76
2023/11/06 04:44:09;;;;;;;0.43;0.43;;;7.70;99.90;;;;;;5089174;28;20629;-74
2023/11/06 04:46:36;;;;;;;0.73;0.53;;;7.80;99.90;;;;;;5089005;28;20620;-75
2023/11/06 04:49:02;;;;;;;0.93;0.63;;;7.90;99.90;;;;;;5088057;28;20624;-74
2023/11/06 04:51:30;;;;;;;1.90;0.70;;;7.90;99.90;;;;;;5088522;28;20661;-75
2023/11/06 04:53:57;;;;;;;1.07;0.57;;;7.80;99.90;;;;;;5088240;28;20663;-74
2023/11/06 04:56:23;;;;;;;0.90;0.80;;;7.80;99.90;;;;;;5089006;28;20632;-74
2023/11/06 04:58:52;;;;;;;0.37;0.23;;;7.80;99.90;;;;;;5088059;28;20199;-73
2023/11/06 05:01:19;;;;;;;0.60;0.60;;;7.80;99.90;;;;;;5080580;28;20632;-74
2023/11/06 05:03:46;;;;;;;0.40;0.33;;;7.70;99.90;;;;;;5088307;28;20623;-74
2023/11/06 05:06:12;;;;;;;2.53;1.07;;;7.70;99.90;;;;;;5087935;28;20633;-74
2023/11/06 05:08:39;;;;;;;1.30;1.23;;;7.70;99.90;;;;;;5088031;28;20649;-74
2023/11/06 05:11:06;;;;;;;0.73;0.57;;;7.70;99.90;;;;;;5088793;28;20660;-74
2023/11/06 05:13:33;;;;;;;0.63;0.63;;;7.70;99.90;;;;;;5086947;28;20791;-74
2023/11/06 05:16:01;;;;;;;0.47;0.47;;;7.70;99.90;;;;;;5088167;28;20621;-74
2023/11/06 05:18:28;;;;;;;0.60;0.60;;;7.80;99.90;;;;;;5087515;28;20752;-74
2023/11/06 05:20:54;;;;;;;0.70;0.50;;;7.80;99.90;;;;;;5087545;28;20660;-74
2023/11/06 05:23:21;;;;;;;0.60;0.30;;;7.80;99.90;;;;;;5088270;28;20637;-74
2023/11/06 05:25:48;;;;;;;0.60;0.60;;;7.70;99.90;;;;;;5087969;28;20195;-74
2023/11/06 05:28:15;;;;;;;0.50;0.50;;;7.80;99.90;;;;;;5087612;28;20205;-75
2023/11/06 05:30:42;;;;;;;1.60;0.30;;;7.80;99.90;;;;;;5088209;28;20694;-74
2023/11/06 05:33:10;;;;;;;0.40;0.33;;;7.80;99.90;;;;;;5088099;28;20657;-74
2023/11/06 05:35:37;;;;;;;0.80;0.70;;;7.80;99.90;;;;;;5087231;28;20720;-74
2023/11/06 05:38:04;;;;;;;0.60;0.37;;;7.80;99.90;;;;;;5087467;28;20734;-74
2023/11/06 05:40:31;;;;;;;0.60;0.53;;;7.80;99.90;;;;;;5088197;28;20617;-74
2023/11/06 05:42:58;;;;;;;5.07;2.07;;;7.80;99.90;;;;;;5087854;28;20717;-74
2023/11/06 05:45:24;;;;;;;1.70;0.40;;;7.80;99.90;;;;;;5087619;28;20629;-73
2023/11/06 05:47:51;;;;;;;0.60;0.50;;;7.70;99.90;;;;;;5086516;28;21292;-74
2023/11/06 05:50:19;;;;;;;1.27;0.67;;;7.80;99.90;;;;;;5087782;28;20209;-74
2023/11/06 05:52:46;;;;;;;0.50;0.47;;;7.60;99.90;;;;;;5087757;28;21028;-74
2023/11/06 05:55:13;;;;;;;0.70;0.50;;;7.60;99.90;;;;;;5079342;28;20613;-74
2023/11/06 05:57:40;;;;;;;0.53;0.43;;;7.60;99.90;;;;;;5086847;28;21079;-74
2023/11/06 06:00:11;;;;;;;0.50;0.47;;;7.60;99.90;;;;;;5087287;28;20625;-74
2023/11/06 06:02:38;;;;;;;0.70;0.70;;;7.60;99.90;;;;;;5087021;28;20703;-74
2023/11/06 06:05:05;;;;;;;0.40;0.30;;;7.60;99.90;;;;;;5087473;28;20629;-74
2023/11/06 06:07:33;;;;;;;1.03;0.40;;;7.50;99.90;;;;;;5087077;28;20629;-74
2023/11/06 06:10:00;;;;;;;0.83;0.70;;;7.30;99.90;;;;;;5087192;28;20728;-74
2023/11/06 06:12:28;;;;;;;0.40;0.40;;;7.40;99.90;;;;;;5087313;28;20621;-73
2023/11/06 06:14:55;;;;;;;1.77;0.30;;;7.50;99.90;;;;;;5086535;28;20231;-74
2023/11/06 06:17:23;;;;;;;1.17;1.00;;;7.40;99.90;;;;;;5086541;28;20633;-74
2023/11/06 06:19:49;;;;;;;0.40;0.40;;;7.40;99.90;;;;;;5086624;28;21170;-74
2023/11/06 06:22:16;;;;;;;0.97;0.50;;;7.40;99.90;;;;;;5086991;28;20191;-73
2023/11/06 06:24:45;;;;;;;0.40;0.27;;;7.30;99.90;;;;;;5086718;28;21046;-73
2023/11/06 06:27:12;;;;;;;4.97;0.80;;;7.30;99.90;;;;;;5086562;28;20617;-73
2023/11/06 06:29:39;;;;;;;0.80;0.80;;;7.30;99.90;;;;;;5086297;28;20637;-74
2023/11/06 06:32:06;;;;;;;0.60;0.50;;;7.40;99.90;;;;;;5087300;28;21052;-74
2023/11/06 06:34:33;;;;;;;0.70;0.50;;;7.40;99.90;;;;;;5086670;28;21078;-74
2023/11/06 06:37:00;;;;;;;0.70;0.40;;;7.40;99.90;;;;;;5086984;28;21186;-74
2023/11/06 06:39:27;;;;;;;0.40;0.37;;;7.30;99.90;;;;;;5086366;28;21031;-74
2023/11/06 06:41:55;;;;;;;0.70;0.70;;;7.40;99.90;;;;;;5100875;28;20975;-75
2023/11/06 06:44:22;;;;;;;1.03;0.90;;;7.30;99.90;;;;;;5092040;28;20637;-74
2023/11/06 06:46:49;;;;;;;0.73;0.63;;;7.40;99.90;;;;;;5086888;28;20623;-74
2023/11/06 06:49:16;;;;;;;0.53;0.50;;;7.40;99.90;;;;;;5086262;28;20629;-75
2023/11/06 06:51:43;;;;;;;0.60;0.60;;;7.30;99.90;;;;;;5086552;28;21059;-75
2023/11/06 06:54:10;;;;;;;0.60;0.60;;;7.40;99.90;;;;;;5086501;28;20693;-75
2023/11/06 06:56:36;;;;;;;1.17;0.80;;;7.40;99.90;;;;;;5085510;28;20716;-75
2023/11/06 06:59:05;;;;;;;1.10;1.00;;;7.40;99.90;;;;;;5086075;28;20655;-75
2023/11/06 07:01:31;;;;;;;0.77;0.70;;;7.40;99.90;;;;;;5086803;28;20729;-75
2023/11/06 07:03:58;;;;;;;0.60;0.60;;;7.40;99.90;;;;;;5086446;28;20625;-75
2023/11/06 07:06:25;;;;;;;0.50;0.50;;;7.40;99.90;;;;;;5086283;28;20629;-74
2023/11/06 07:08:56;;;;;;;0.33;0.33;;;7.50;99.90;;;;;;5085651;28;20628;-74
2023/11/06 07:11:22;;;;;;;0.50;0.50;;;7.50;99.90;;;;;;5086110;28;20728;-75
2023/11/06 07:13:49;;;;;;;0.70;0.70;;;7.50;99.90;;;;;;5086321;28;20759;-73
2023/11/06 07:16:17;;;;;;;1.20;0.90;;;7.40;99.90;;;;;;5086489;28;20623;-75
2023/11/06 07:18:44;;;;;;;0.73;0.47;;;7.50;99.90;;;;;;5085644;28;20621;-75
2023/11/06 07:21:11;;;;;;;0.87;0.60;;;7.60;99.90;;;;;;5086170;28;20624;-75
2023/11/06 07:23:38;;;;;;;0.70;0.60;;;7.70;99.90;;;;;;5086161;28;21045;-74
2023/11/06 07:26:06;;;;;;;0.50;0.40;;;7.80;99.90;;;;;;5086681;28;20750;-75
2023/11/06 07:28:33;;;;;;;0.83;0.53;;;7.80;99.90;;;;;;5086059;28;21190;-75
2023/11/06 07:31:00;;;;;;;1.33;0.60;;;8.00;99.90;;;;;;5086321;28;20621;-75
2023/11/06 07:33:28;;;;;;;2.43;0.77;;;8.00;99.90;;;;;;5086048;28;20656;-75
2023/11/06 07:35:55;;;;;;;0.77;0.53;;;8.10;99.90;;;;;;5078692;28;20883;-74
2023/11/06 07:38:21;;;;;;;0.73;0.50;;;8.10;99.90;;;;;;5089027;28;20726;-75
2023/11/06 07:40:49;;;;;;;0.63;0.60;;;8.20;99.90;;;;;;5090015;28;21177;-74
2023/11/06 07:43:16;;;;;;;0.50;0.50;;;8.20;99.90;;;;;;5090193;28;20733;-74
2023/11/06 07:45:42;;;;;;;0.80;0.50;;;8.30;99.90;;;;;;5089722;28;20627;-74
2023/11/06 07:48:09;;;;;;;0.53;0.53;;;8.30;99.90;;;;;;5089442;28;20629;-74
2023/11/06 07:50:38;;;;;;;4.73;0.93;;;8.50;99.90;;;;;;5089757;28;20620;-73
2023/11/06 07:53:05;;;;;;;1.10;0.70;;;8.60;99.90;;;;;;5089182;28;20709;-74
2023/11/06 07:55:32;;;;;;;0.70;0.70;;;8.50;99.90;;;;;;5089840;28;21013;-74
2023/11/06 07:58:00;;;;;;;1.20;1.10;;;8.60;99.90;;;;;;5089591;28;20625;-74
2023/11/06 08:00:27;;;;;;;4.00;0.70;;;8.70;99.90;;;;;;5089745;28;21220;-73
2023/11/06 08:02:54;;;;;;;2.43;1.43;;;8.80;99.90;;;;;;5089520;28;20694;-74
2023/11/06 08:05:20;;;;;;;0.87;0.80;;;8.80;99.90;;;;;;5089507;28;20612;-74
2023/11/06 08:07:49;;;;;;;1.13;0.90;;;9.00;99.90;;;;;;5089213;28;20617;-74
2023/11/06 08:10:16;;;;;;;1.70;0.70;;;9.10;99.90;;;;;;5089841;28;20743;-74
2023/11/06 08:12:43;;;;;;;0.53;0.50;;;9.20;99.90;;;;;;5089483;28;20625;-74
2023/11/06 08:15:11;;;;;;;1.20;1.10;;;9.30;99.90;;;;;;5089147;28;20675;-75
2023/11/06 08:17:38;;;;;;;0.63;0.60;;;9.40;99.90;;;;;;5088658;28;20620;-74
2023/11/06 08:20:07;;;;;;;1.67;0.80;;;9.50;99.90;;;;;;5088941;28;20732;-74
2023/11/06 08:22:34;;;;;;;1.27;0.83;;;9.60;99.90;;;;;;5089682;28;20631;-74
2023/11/06 08:25:02;;;;;;;0.77;0.70;;;9.60;99.90;;;;;;5089491;28;20707;-74
2023/11/06 08:27:29;;;;;;;0.50;0.50;;;9.60;99.90;;;;;;5088833;28;21000;-74
2023/11/06 08:29:56;;;;;;;0.97;0.73;;;9.70;99.90;;;;;;5089110;28;20671;-74
2023/11/06 08:32:24;;;;;;;0.50;0.47;;;9.80;99.90;;;;;;5088956;28;20678;-74
2023/11/06 08:34:51;;;;;;;0.97;0.93;;;9.90;99.90;;;;;;5088802;28;20767;-74
2023/11/06 08:37:18;;;;;;;1.27;0.80;;;9.90;99.90;;;;;;5088812;28;20720;-75
2023/11/06 08:39:46;;;;;;;0.70;0.67;;;9.90;99.90;;;;;;5089156;28;20686;-74
2023/11/06 08:42:14;;;;;;;0.40;0.40;;;10.00;99.90;;;;;;5089023;28;20617;-75
2023/11/06 08:44:42;;;;;;;1.07;0.57;;;10.10;99.90;;;;;;5089281;28;20656;-74
2023/11/06 08:47:09;;;;;;;1.43;0.70;;;10.10;99.90;;;;;;5087635;28;21172;-74
2023/11/06 08:49:36;;;;;;;0.60;0.47;;;10.20;99.90;;;;;;5088727;28;20985;-74
2023/11/06 08:52:03;;;;;;;0.57;0.53;;;10.30;99.90;;;;;;5088667;28;20625;-74
2023/11/06 08:54:31;;;;;;;1.03;0.80;;;10.50;99.90;;;;;;5088619;28;21018;-74
2023/11/06 08:56:58;;;;;;;0.60;0.60;;;10.50;99.90;;;;;;5088667;28;20693;-74
2023/11/06 08:59:26;;;;;;;0.60;0.60;;;10.60;99.90;;;;;;5088017;28;20621;-74
2023/11/06 09:01:53;;;;;;;1.83;0.80;;;10.50;99.90;;;;;;5088503;28;20627;-74
2023/11/06 09:04:20;;;;;;;0.90;0.60;;;10.50;99.90;;;;;;5088455;28;20769;-74
2023/11/06 09:06:47;;;;;;;0.50;0.50;;;10.50;99.90;;;;;;5088553;28;20627;-74
2023/11/06 09:09:15;;;;;;;0.50;0.40;;;10.50;99.90;;;;;;5087710;28;20627;-74
2023/11/06 09:11:43;;;;;;;1.00;0.70;;;10.40;99.90;;;;;;5088614;28;20621;-75
2023/11/06 09:14:10;;;;;;;1.00;0.77;;;10.40;99.90;;;;;;5087439;28;20697;-75
2023/11/06 09:16:40;;;;;;;0.50;0.43;;;10.50;99.90;;;;;;5088209;28;20716;-75
2023/11/06 09:19:07;;;;;;;0.40;0.30;;;10.50;99.90;;;;;;5087800;28;20616;-75
2023/11/06 09:21:34;;;;;;;1.30;0.97;;;10.40;99.90;;;;;;5088348;28;20621;-74
2023/11/06 09:24:01;;;;;;;0.40;0.40;;;10.50;99.90;;;;;;5088077;28;20657;-75
2023/11/06 09:26:28;;;;;;;1.93;0.70;;;10.50;99.90;;;;;;5087783;28;20625;-75
2023/11/06 09:28:55;;;;;;;0.60;0.60;;;10.50;99.90;;;;;;5087127;28;20616;-75
2023/11/06 09:31:22;;;;;;;2.30;0.80;;;10.60;99.90;;;;;;5088236;28;20636;-75
2023/11/06 09:33:50;;;;;;;1.13;1.03;;;10.50;99.90;;;;;;5087735;28;20623;-74
2023/11/06 09:36:17;;;;;;;0.60;0.60;;;10.60;99.90;;;;;;5088022;28;21129;-75
2023/11/06 09:38:44;;;;;;;0.60;0.60;;;10.60;99.90;;;;;;5087166;28;21051;-75
2023/11/06 09:41:12;;;;;;;2.07;0.67;;;10.60;99.90;;;;;;5087335;28;20617;-75
2023/11/06 09:43:41;;;;;;;1.07;0.50;;;10.60;99.90;;;;;;5087829;28;20684;-75
2023/11/06 09:46:09;;;;;;;0.70;0.70;;;10.60;99.90;;;;;;5087591;28;20629;-75
2023/11/06 09:48:37;;;;;;;0.60;0.60;;;10.70;99.90;;;;;;5087045;28;20628;-75
2023/11/06 09:51:11;;;;;;;3.13;0.50;;;10.80;99.90;;;;;;5087607;28;20645;-75
2023/11/06 09:53:38;;;;;;;0.53;0.50;;;10.70;99.90;;;;;;5087252;28;20625;-75
2023/11/06 09:56:07;;;;;;;1.00;0.50;;;10.60;99.90;;;;;;5087539;28;20676;-75
2023/11/06 09:58:36;;;;;;;0.80;0.60;;;10.70;99.90;;;;;;5086950;28;20609;-75
2023/11/06 10:01:04;;;;;;;2.50;0.30;;;10.80;99.90;;;;;;5087436;28;21217;-75
2023/11/06 10:03:30;;;;;;;1.40;0.63;;;10.80;99.90;;;;;;5087653;28;20670;-74
2023/11/06 10:05:58;;;;;;;0.50;0.50;;;10.80;99.90;;;;;;5087530;28;20628;-74
2023/11/06 10:08:31;;;;;;;0.93;0.40;;;10.90;99.90;;;;;;5078150;28;20621;-75
2023/11/06 10:10:59;;;;;;;0.60;0.60;;;11.00;99.90;;;;;;5087381;28;20713;-75
2023/11/06 10:13:26;;;;;;;0.40;0.40;;;11.00;99.90;;;;;;5087276;28;20641;-75
2023/11/06 10:15:53;;;;;;;0.80;0.60;;;11.10;99.90;;;;;;5087111;28;20665;-74
2023/11/06 10:18:21;;;;;;;1.57;0.40;;;11.10;99.90;;;;;;5086629;28;21320;-75
2023/11/06 10:20:49;;;;;;;1.80;0.30;;;11.10;99.90;;;;;;5086343;28;20742;-75
2023/11/06 10:23:23;;;;;;;1.17;0.53;;;11.10;99.90;;;;;;5087094;28;21290;-75
2023/11/06 10:25:52;;;;;;;0.33;0.33;;;11.30;99.90;;;;;;5079349;28;20633;-74
2023/11/06 10:28:21;;;;;;;1.30;0.63;;;11.40;99.90;;;;;;5086341;28;21350;-75
2023/11/06 10:30:49;;;;;;;0.90;0.50;;;11.40;99.90;;;;;;5078665;28;20657;-75
2023/11/06 10:33:17;;;;;;;0.50;0.47;;;11.40;99.90;;;;;;5086602;28;20659;-75
2023/11/06 10:35:44;;;;;;;1.17;0.50;;;11.50;99.90;;;;;;5086751;28;20675;-75
2023/11/06 10:38:28;;;;;;;1.50;0.60;;;11.40;99.90;;;;;;5086304;28;20625;-75
2023/11/06 10:40:56;;;;;;;0.93;0.50;;;11.40;99.90;;;;;;5086313;28;21173;-75
2023/11/06 10:43:23;;;;;;;2.00;0.40;;;11.40;99.90;;;;;;5086715;28;20775;-75
2023/11/06 10:45:51;;;;;;;0.47;0.47;;;11.50;99.90;;;;;;5085818;28;20632;-74
2023/11/06 10:48:31;;;;;;;0.40;0.40;;;11.40;99.90;;;;;;5086327;28;20723;-75
2023/11/06 10:50:58;;;;;;;0.40;0.37;;;11.40;99.90;;;;;;5086570;28;20631;-75
2023/11/06 10:53:28;;;;;;;0.70;0.57;;;11.40;99.90;;;;;;5086804;28;20613;-74
2023/11/06 10:56:01;;;;;;;0.50;0.43;;;11.40;99.90;;;;;;5086657;28;20656;-75
2023/11/06 10:58:30;;;;;;;0.57;0.57;;;11.50;99.90;;;;;;5085563;28;20621;-75
2023/11/06 11:00:59;;;;;;;1.30;0.60;;;11.50;99.90;;;;;;5086570;28;20803;-75
2023/11/06 11:03:27;;;;;;;0.77;0.47;;;11.60;99.60;;;;;;5086614;28;20625;-75
2023/11/06 11:05:54;;;;;;;2.07;0.60;;;11.60;99.80;;;;;;5086156;28;20629;-74
2023/11/06 11:08:24;;;;;;;0.80;0.63;;;11.60;99.50;;;;;;5085887;28;20621;-74
2023/11/06 11:10:52;;;;;;;0.63;0.30;;;11.70;99.70;;;;;;5085958;28;20617;-74
2023/11/06 11:13:21;;;;;;;1.07;0.50;;;11.80;99.70;;;;;;5090191;28;21188;-75
2023/11/06 11:15:48;;;;;;;0.80;0.47;;;11.80;99.90;;;;;;5090801;28;20932;-75
2023/11/06 11:18:15;;;;;;;0.60;0.50;;;11.90;99.80;;;;;;5089840;28;21064;-75
2023/11/06 11:20:51;;;;;;;0.57;0.43;;;12.00;99.10;;;;;;5090376;28;20621;-75
2023/11/06 11:23:18;;;;;;;0.50;0.40;;;12.10;98.70;;;;;;5090112;28;20625;-76
2023/11/06 11:25:55;;;;;;;0.87;0.67;;;12.00;98.80;;;;;;5090493;28;20632;-75
2023/11/06 11:28:24;;;;;;;0.50;0.50;;;11.80;98.80;;;;;;5089853;28;20720;-75
2023/11/06 11:30:51;;;;;;;0.60;0.57;;;11.90;99.70;;;;;;5090558;28;21045;-74
2023/11/06 11:33:53;;;;;;;0.93;0.87;;;11.90;98.90;;;;;;5090386;28;20624;-74
2023/11/06 11:36:31;;;;;;;0.93;0.67;;;12.00;98.40;;;;;;5086044;28;20669;-75
2023/11/06 11:38:58;;;;;;;0.73;0.63;;;12.00;99.00;;;;;;5081591;28;21215;-75
2023/11/06 11:41:26;;;;;;;0.80;0.80;;;12.00;98.90;;;;;;5090099;28;21184;-74
2023/11/06 11:44:05;;;;;;;0.60;0.43;;;12.00;99.30;;;;;;5089853;28;20621;-75
2023/11/06 11:46:55;;;;;;;0.70;0.60;;;12.20;98.80;;;;;;5089936;28;20632;-75
2023/11/06 11:49:49;;;;;;;0.30;0.30;;;12.10;98.60;;;;;;5083607;28;20670;-75
2023/11/06 11:52:37;;;;;;;0.70;0.43;;;12.10;98.50;;;;;;5074466;28;20702;-75
2023/11/06 11:55:30;;;;;;;0.50;0.50;;;12.20;97.70;;;;;;5089632;28;20675;-75
2023/11/06 11:58:04;;;;;;;0.60;0.50;;;12.30;98.00;;;;;;5088637;28;20995;-75
2023/11/06 12:00:33;;;;;;;0.60;0.50;;;12.40;98.00;;;;;;5089775;28;21199;-75
2023/11/06 12:03:07;;;;;;;0.30;0.30;;;12.40;97.90;;;;;;5089260;28;20613;-75
2023/11/06 12:05:33;;;;;;;0.60;0.40;;;12.60;97.00;;;;;;5089750;28;20617;-75
2023/11/06 12:08:00;;;;;;;0.90;0.60;;;12.60;97.60;;;;;;5089230;28;21012;-75
2023/11/06 12:10:31;;;;;;;1.30;0.53;;;12.60;97.30;;;;;;5089548;28;20617;-75
2023/11/06 12:13:12;;;;;;;1.17;0.80;;;12.60;96.90;;;;;;5089247;28;20644;-75
2023/11/06 12:15:40;;;;;;;0.43;0.40;;;12.40;96.00;;;;;;5082148;28;20659;-74
2023/11/06 12:18:08;;;;;;;0.40;0.30;;;12.40;96.40;;;;;;5088944;28;20723;-75
2023/11/06 12:20:35;;;;;;;0.50;0.40;;;12.50;96.90;;;;;;5085737;28;20621;-75
2023/11/06 12:23:02;;;;;;;0.40;0.40;;;12.50;96.30;;;;;;5088695;28;20654;-75
2023/11/06 12:25:33;;;;;;;0.50;0.43;;;12.60;96.60;;;;;;5088137;28;20756;-75
2023/11/06 12:28:06;;;;;;;0.60;0.50;;;12.70;96.50;;;;;;5088223;28;21219;-75
2023/11/06 12:30:34;;;;;;;0.70;0.37;;;12.60;96.10;;;;;;5089462;28;20625;-75
2023/11/06 12:33:13;;;;;;;0.63;0.40;;;12.50;96.00;;;;;;5089555;28;21189;-75
2023/11/06 12:35:40;;;;;;;1.80;0.93;;;12.50;96.20;;;;;;5088979;28;20751;-75
2023/11/06 12:38:08;;;;;;;1.63;0.80;;;12.60;96.00;;;;;;5088525;28;20724;-75
2023/11/06 12:40:41;;;;;;;0.30;0.20;;;12.40;96.30;;;;;;5088421;28;21202;-75
2023/11/06 12:43:08;;;;;;;0.70;0.40;;;12.30;96.70;;;;;;5089105;28;20863;-76
2023/11/06 12:45:38;;;;;;;0.97;0.60;;;12.30;96.70;;;;;;5089291;28;20628;-76
2023/11/06 12:48:25;;;;;;;1.23;0.40;;;12.40;96.20;;;;;;5081509;28;20635;-75
2023/11/06 12:51:00;;;;;;;0.87;0.60;;;12.30;96.20;;;;;;5088068;28;21021;-76
2023/11/06 12:53:28;;;;;;;0.97;0.47;;;12.40;96.90;;;;;;5089124;28;20647;-76
2023/11/06 12:55:55;;;;;;;0.50;0.40;;;12.30;96.30;;;;;;5088696;28;21061;-76
2023/11/06 12:58:23;;;;;;;0.40;0.20;;;12.30;96.00;;;;;;5088183;28;20621;-75